Mount Gambier, South Australia

1:28 AM CST on July 30, 2014 (GMT +0930)
Mount Gambier (YMTG) Elev 210 ft | 37.75 °S, 140.79 °E | Change Station

Current weather conditions updated 41 minutes ago

Mostly Cloudy
Mostly Cloudy
54 °F
Feels Like 54 °F
N
17
Wind Variable Wind from WNW

Today is forecast to be nearly the same temperature as yesterday. Showers possible.

Today
High -- | Low -- °F
--% Chance of Precip.
Yesterday
High -- | Low -- °F
Precip. -- in
7:09 AM 5:17 PM
Waxing Crescent, 7% visible
Pressure 29.86 in
Visibility 6.2 miles
Clouds Scattered Clouds 3100 ft
Scattered Clouds 4200 ft
Mostly Cloudy 6000 ft
Dew Point 50 °F
Humidity 88%
Rainfall 0.00 in
Snow Depth Not available.
UV 0 out of 12
Pollen Not available.
Air Quality Not available.
Flu Activity Not available.
SPECI YMTG 291517Z AUTO 29015KT 9999 // SCT031 SCT042 BKN060 12/10 Q1011

More Conditions Fewer Conditions

Pressure 29.86 in
Visibility 6.2 miles
Clouds Scattered Clouds 3100 ft
Scattered Clouds 4200 ft
Mostly Cloudy 6000 ft
Dew Point 50 °F
Humidity 88%
Rainfall 0.00 in
Snow Depth Not available.
UV 0 out of 12
Pollen Not available.
Air Quality Not available.
Flu Activity Not available.
SPECI YMTG 291517Z AUTO 29015KT 9999 // SCT031 SCT042 BKN060 12/10 Q1011

More Conditions Fewer Conditions

10-Day Weather Forecast

Almanac

Astronomy

Jul. 30, 2014 Rise Set
Actual Time 7:09 AM CST 5:17 PM CST
Civil Twilight 6:41 AM CST 5:45 PM CST
Nautical Twilight 6:09 AM CST 6:17 PM CST
Astronomical Twilight 5:38 AM CST 6:48 PM CST
Moon 8:31 AM CST (7/30) 8:27 PM CST (7/30)
Length of Visible Light 11h 04m
Length of Day
10h 08m
Tomorrow will be 1m 42s longer.
Waxing Crescent, 7% of the Moon is Illuminated
Jul 29
Waxing Crescent
Aug 3
First Quarter
Aug 10
Full
Aug 17
Last Quarter
Aug 25
New

Yesterday's Extremes

Country Highs Country Lows

Community

WunderPhotos

Upload Photos

1,738,770 photos uploaded!

Nearby

Snow Depth

Not available.

Earthquake Activity

City Distance Mag. Time & Date
No recent earthquake activity has been reported nearby.
Minimum magnitude displayed is 2.5.

Coastal Water Temperatures

Place Temperature
No Stations Reporting

Nearby Weather Stations

Station Location Temp. Dew Point Humidity Wind Precip. Elev Updated Type
Yahl, YAHL 54.7 °F 52 °F 90% ESE  at  4.0 mph 0.00 in / hr 128 ft 1:14 AM CST Normal
Rocky Camp, Millicent 55.9 °F 52 °F 86% WSW  at  0.0 mph 0.00 in / hr 69 ft 1:28 AM CST Normal

Show More Stations Show Fewer Stations